createdAt,value
2024-04-25T00:00:39.034Z,2.42
2024-04-25T00:03:06.903Z,3.38
2024-04-25T00:05:33.973Z,2.88
2024-04-25T00:08:00.837Z,2.80
2024-04-25T00:10:27.708Z,2.65
2024-04-25T00:12:54.619Z,2.67
2024-04-25T00:15:21.443Z,2.63
2024-04-25T00:17:48.341Z,2.83
2024-04-25T00:20:15.312Z,2.60
2024-04-25T00:22:42.260Z,3.08
2024-04-25T00:25:09.248Z,2.78
2024-04-25T00:27:36.149Z,2.75
2024-04-25T00:30:03.242Z,3.10
2024-04-25T00:32:30.281Z,2.88
2024-04-25T00:34:59.067Z,2.45
2024-04-25T00:37:26.677Z,2.67
2024-04-25T00:39:56.200Z,2.92
2024-04-25T00:42:24.382Z,2.85
2024-04-25T00:44:51.660Z,2.78
2024-04-25T00:47:20.991Z,2.35
2024-04-25T00:49:49.345Z,2.28
2024-04-25T00:52:19.603Z,2.53
2024-04-25T00:54:47.245Z,2.63
2024-04-25T00:57:15.628Z,2.47
2024-04-25T00:59:44.718Z,2.38
2024-04-25T01:02:12.508Z,2.45
2024-04-25T01:04:40.168Z,2.40
2024-04-25T01:07:09.610Z,2.50
2024-04-25T01:09:37.137Z,2.25
2024-04-25T01:12:05.754Z,2.40
2024-04-25T01:14:32.855Z,2.72
2024-04-25T01:16:59.784Z,2.15
2024-04-25T01:19:26.819Z,1.85
2024-04-25T01:21:53.794Z,2.30
2024-04-25T01:24:28.221Z,1.83
2024-04-25T01:26:58.365Z,1.80
2024-04-25T01:29:25.866Z,1.60
2024-04-25T01:31:53.769Z,2.28
2024-04-25T01:34:20.892Z,2.28
2024-04-25T01:36:47.865Z,2.92
2024-04-25T01:39:14.961Z,2.25
2024-04-25T01:41:42.022Z,2.42
2024-04-25T01:44:08.970Z,2.40
2024-04-25T01:46:36.383Z,2.35
2024-04-25T01:49:03.360Z,1.50
2024-04-25T01:51:30.509Z,1.50
2024-04-25T01:53:57.384Z,1.60
2024-04-25T01:56:24.397Z,1.48
2024-04-25T01:58:54.195Z,1.50
2024-04-25T02:01:21.335Z,1.02
2024-04-25T02:03:48.878Z,1.23
2024-04-25T02:06:15.775Z,1.40
2024-04-25T02:08:42.734Z,1.50
2024-04-25T02:11:09.657Z,1.60
2024-04-25T02:13:36.973Z,2.22
2024-04-25T02:16:04.054Z,2.25
2024-04-25T02:18:30.998Z,2.85
2024-04-25T02:21:16.870Z,2.90
2024-04-25T02:24:02.627Z,3.25
2024-04-25T02:26:29.578Z,2.22
2024-04-25T02:28:56.382Z,1.65
2024-04-25T02:31:29.503Z,1.40
2024-04-25T02:33:56.303Z,1.30
2024-04-25T02:36:23.114Z,1.55
2024-04-25T02:38:49.945Z,1.30
2024-04-25T02:41:16.822Z,1.23
2024-04-25T02:43:43.757Z,1.58
2024-04-25T02:46:10.625Z,1.25
2024-04-25T02:48:37.609Z,1.67
2024-04-25T02:51:04.900Z,1.75
2024-04-25T02:53:32.667Z,1.50
2024-04-25T02:56:00.194Z,1.70
2024-04-25T02:58:27.134Z,1.35
2024-04-25T03:01:03.866Z,1.70
2024-04-25T03:03:31.503Z,1.85
2024-04-25T03:05:59.559Z,1.67
2024-04-25T03:08:26.419Z,1.88
2024-04-25T03:10:53.331Z,1.48
2024-04-25T03:13:20.166Z,1.50
2024-04-25T03:15:47.022Z,1.98
2024-04-25T03:18:14.327Z,1.63
2024-04-25T03:20:41.450Z,1.38
2024-04-25T03:23:08.334Z,1.55
2024-04-25T03:25:35.184Z,1.73
2024-04-25T03:28:02.043Z,1.50
2024-04-25T03:30:28.950Z,1.30
2024-04-25T03:32:56.334Z,1.30
2024-04-25T03:35:23.297Z,1.75
2024-04-25T03:37:50.260Z,1.33
2024-04-25T03:40:17.173Z,1.55
2024-04-25T03:42:45.116Z,1.67
2024-04-25T03:45:12.044Z,1.55
2024-04-25T03:47:39.036Z,1.27
2024-04-25T03:50:06.559Z,1.20
2024-04-25T03:52:33.454Z,1.70
2024-04-25T03:55:00.327Z,1.38
2024-04-25T03:57:27.171Z,1.73
2024-04-25T03:59:54.010Z,2.33
2024-04-25T04:02:20.946Z,2.25
2024-04-25T04:04:47.836Z,1.80
2024-04-25T04:07:14.675Z,1.65
2024-04-25T04:09:42.554Z,1.60
2024-04-25T04:12:09.478Z,2.17
2024-04-25T04:14:36.465Z,1.67
2024-04-25T04:17:03.342Z,1.80
2024-04-25T04:19:30.185Z,1.88
2024-04-25T04:21:57.112Z,1.83
2024-04-25T04:24:23.943Z,1.58
2024-04-25T04:26:50.771Z,1.83
2024-04-25T04:29:17.689Z,1.77
2024-04-25T04:31:44.797Z,1.70
2024-04-25T04:34:11.751Z,1.83
2024-04-25T04:36:38.672Z,1.77
2024-04-25T04:39:06.402Z,1.55
2024-04-25T04:41:33.409Z,1.75
2024-04-25T04:44:00.243Z,1.30
2024-04-25T04:46:27.179Z,1.77
2024-04-25T04:48:54.134Z,1.67
2024-04-25T04:51:21.502Z,1.52
2024-04-25T04:53:49.363Z,2.40
2024-04-25T04:56:16.506Z,1.55
2024-04-25T04:58:43.413Z,2.08
2024-04-25T05:01:10.472Z,1.70
2024-04-25T05:03:38.092Z,2.15
2024-04-25T05:06:07.680Z,1.92
2024-04-25T05:08:38.966Z,2.13
2024-04-25T05:11:05.989Z,1.90
2024-04-25T05:13:32.786Z,1.63
2024-04-25T05:15:59.614Z,1.75
2024-04-25T05:18:27.315Z,1.92
2024-04-25T05:20:54.143Z,1.67
2024-04-25T05:23:21.023Z,2.10
2024-04-25T05:25:48.525Z,2.08
2024-04-25T05:28:17.934Z,2.00
2024-04-25T05:30:46.855Z,2.00
2024-04-25T05:33:13.828Z,2.28
2024-04-25T05:35:41.037Z,1.95
2024-04-25T05:38:08.037Z,2.00
2024-04-25T05:40:34.891Z,1.98
2024-04-25T05:43:01.728Z,1.73
2024-04-25T05:45:28.588Z,2.08
2024-04-25T05:47:55.576Z,1.80
2024-04-25T05:50:22.622Z,1.50
2024-04-25T05:52:49.486Z,1.88
2024-04-25T05:55:16.461Z,2.55
2024-04-25T05:57:43.319Z,2.03
2024-04-25T06:00:10.944Z,2.28
2024-04-25T06:02:38.005Z,1.98
2024-04-25T06:05:05.116Z,1.90
2024-04-25T06:07:31.935Z,1.73
2024-04-25T06:09:58.781Z,2.15
2024-04-25T06:12:25.833Z,2.13
2024-04-25T06:14:52.987Z,1.75
2024-04-25T06:17:19.903Z,1.95
2024-04-25T06:19:48.171Z,2.35
2024-04-25T06:22:15.259Z,1.70
2024-04-25T06:24:42.155Z,1.98
2024-04-25T06:27:09.340Z,2.10
2024-04-25T06:29:36.188Z,1.80
2024-04-25T06:32:03.121Z,2.17
2024-04-25T06:34:31.619Z,2.72
2024-04-25T06:37:03.122Z,2.10
2024-04-25T06:39:30.025Z,1.60
2024-04-25T06:41:59.137Z,1.88
2024-04-25T06:44:31.562Z,2.28
2024-04-25T06:47:03.469Z,2.15
2024-04-25T06:49:30.326Z,1.58
2024-04-25T06:51:57.230Z,2.67
2024-04-25T06:54:26.384Z,1.80
2024-04-25T06:56:54.799Z,1.90
2024-04-25T06:59:21.732Z,4.90
2024-04-25T07:01:50.695Z,2.70
2024-04-25T07:04:36.423Z,2.08
2024-04-25T07:07:04.771Z,3.25
2024-04-25T07:09:31.575Z,1.73
2024-04-25T07:11:58.527Z,2.60
2024-04-25T07:14:25.444Z,1.85
2024-04-25T07:16:52.367Z,2.30
2024-04-25T07:19:19.343Z,1.60
2024-04-25T07:21:46.273Z,1.83
2024-04-25T07:24:13.191Z,2.45
2024-04-25T07:26:41.045Z,2.47
2024-04-25T07:29:08.048Z,2.47
2024-04-25T07:31:34.964Z,2.47
2024-04-25T07:34:02.177Z,3.15
2024-04-25T07:36:29.260Z,2.15
2024-04-25T07:38:56.250Z,2.20
2024-04-25T07:41:23.358Z,2.00
2024-04-25T07:43:50.505Z,1.95
2024-04-25T07:46:17.763Z,2.08
2024-04-25T07:48:46.210Z,1.75
2024-04-25T07:51:13.354Z,2.20
2024-04-25T07:53:40.341Z,2.63
2024-04-25T07:56:07.476Z,2.58
2024-04-25T07:58:34.392Z,2.38
2024-04-25T08:01:01.392Z,2.20
2024-04-25T08:03:28.892Z,2.20
2024-04-25T08:05:55.831Z,2.30
2024-04-25T08:08:25.802Z,2.08
2024-04-25T08:10:53.470Z,2.13
2024-04-25T08:13:20.466Z,1.90
2024-04-25T08:15:47.576Z,1.98
2024-04-25T08:18:14.667Z,2.08
2024-04-25T08:20:41.680Z,1.80
2024-04-25T08:23:08.619Z,2.60
2024-04-25T08:25:35.438Z,1.63
2024-04-25T08:28:02.242Z,2.00
2024-04-25T08:30:29.083Z,2.20
2024-04-25T08:32:56.392Z,1.98
2024-04-25T08:35:23.761Z,2.20
2024-04-25T08:37:50.650Z,1.88
2024-04-25T08:40:17.561Z,2.67
2024-04-25T08:42:45.702Z,2.72
2024-04-25T08:45:12.718Z,2.35
2024-04-25T08:47:40.608Z,2.17
2024-04-25T08:50:08.258Z,2.50
2024-04-25T08:52:36.328Z,1.80
2024-04-25T08:55:03.815Z,2.28
2024-04-25T08:57:30.827Z,2.75
2024-04-25T08:59:57.679Z,2.53
2024-04-25T09:02:26.638Z,2.72
2024-04-25T09:04:55.518Z,2.15
2024-04-25T09:07:22.403Z,1.85
2024-04-25T09:09:50.045Z,1.95
2024-04-25T09:12:16.960Z,2.40
2024-04-25T09:14:43.984Z,2.40
2024-04-25T09:17:18.240Z,1.75
2024-04-25T09:19:45.406Z,1.77
2024-04-25T09:22:12.272Z,1.63
2024-04-25T09:24:39.108Z,1.80
2024-04-25T09:27:08.216Z,1.83
2024-04-25T09:29:35.867Z,2.10
2024-04-25T09:32:03.963Z,1.88
2024-04-25T09:34:31.424Z,1.77
2024-04-25T09:36:58.331Z,1.45
2024-04-25T09:39:25.206Z,1.73
2024-04-25T09:41:52.790Z,2.20
2024-04-25T09:44:20.303Z,1.40
2024-04-25T09:47:02.680Z,2.10
2024-04-25T09:49:36.514Z,2.65
2024-04-25T09:52:20.465Z,1.88
2024-04-25T09:54:49.014Z,1.95
2024-04-25T09:57:18.714Z,2.05
2024-04-25T10:00:04.968Z,2.22
2024-04-25T10:02:33.908Z,1.90
2024-04-25T10:05:01.575Z,2.85
2024-04-25T10:07:29.936Z,2.30
2024-04-25T10:09:57.532Z,1.83
2024-04-25T10:12:27.375Z,1.83
2024-04-25T10:14:57.575Z,1.75
2024-04-25T10:17:28.382Z,1.60
2024-04-25T10:19:55.416Z,2.20
2024-04-25T10:22:23.878Z,2.10
2024-04-25T10:24:56.729Z,2.13
2024-04-25T10:27:26.195Z,2.20
2024-04-25T10:29:53.771Z,1.85
2024-04-25T10:32:20.892Z,1.60
2024-04-25T10:34:48.514Z,1.77
2024-04-25T10:37:15.725Z,1.67
2024-04-25T10:39:45.913Z,1.45
2024-04-25T10:42:17.348Z,2.38
2024-04-25T10:44:50.007Z,1.92
2024-04-25T10:47:17.913Z,1.65
2024-04-25T10:49:49.150Z,2.20
2024-04-25T10:52:16.266Z,1.92
2024-04-25T10:54:43.345Z,1.67
2024-04-25T10:57:10.165Z,1.73
2024-04-25T10:59:37.100Z,1.80
2024-04-25T11:02:05.789Z,1.60
2024-04-25T11:04:40.854Z,1.45
2024-04-25T11:07:10.823Z,1.70
2024-04-25T11:09:38.230Z,1.60
2024-04-25T11:12:08.842Z,1.70
2024-04-25T11:14:37.359Z,1.90
2024-04-25T11:17:04.588Z,1.58
2024-04-25T11:19:33.453Z,1.48
2024-04-25T11:22:06.921Z,1.58
2024-04-25T11:24:34.343Z,1.40
2024-04-25T11:27:02.848Z,1.52
2024-04-25T11:29:31.972Z,1.25
2024-04-25T11:31:58.952Z,1.30
2024-04-25T11:34:26.777Z,1.60
2024-04-25T11:37:08.919Z,1.45
2024-04-25T11:39:38.341Z,1.60
2024-04-25T11:42:08.161Z,1.55
2024-04-25T11:44:35.377Z,1.70
2024-04-25T11:47:06.358Z,2.20
2024-04-25T11:49:34.114Z,2.10
2024-04-25T11:52:01.138Z,2.28
2024-04-25T11:54:28.087Z,2.25
2024-04-25T11:56:55.861Z,2.30
2024-04-25T11:59:22.911Z,2.33
2024-04-25T12:01:53.723Z,1.95
2024-04-25T12:04:21.985Z,2.50
2024-04-25T12:06:48.983Z,2.00
2024-04-25T12:09:15.858Z,1.85
2024-04-25T12:11:47.858Z,1.70
2024-04-25T12:14:17.530Z,2.00
2024-04-25T12:16:44.616Z,1.67
2024-04-25T12:19:11.474Z,1.80
2024-04-25T12:21:38.350Z,2.05
2024-04-25T12:24:05.381Z,1.90
2024-04-25T12:26:32.254Z,2.05
2024-04-25T12:28:59.104Z,1.95
2024-04-25T12:31:26.050Z,1.80
2024-04-25T12:33:54.706Z,1.98
2024-04-25T12:36:21.925Z,1.80
2024-04-25T12:38:48.883Z,2.97
2024-04-25T12:41:15.912Z,2.10
2024-04-25T12:43:42.755Z,1.80
2024-04-25T12:46:09.616Z,1.83
2024-04-25T12:48:36.628Z,2.10
2024-04-25T12:51:03.812Z,1.65
2024-04-25T12:53:30.679Z,1.55
2024-04-25T12:55:58.308Z,1.88
2024-04-25T12:58:26.499Z,1.58
2024-04-25T13:00:53.545Z,1.90
2024-04-25T13:03:20.514Z,1.98
2024-04-25T13:05:47.998Z,2.72
2024-04-25T13:08:15.476Z,2.60
2024-04-25T13:10:44.964Z,2.10
2024-04-25T13:13:13.397Z,1.92
2024-04-25T13:15:40.292Z,2.10
2024-04-25T13:18:07.292Z,2.10
2024-04-25T13:20:34.242Z,1.88
2024-04-25T13:23:01.220Z,2.13
2024-04-25T13:25:28.052Z,1.85
2024-04-25T13:27:55.780Z,1.90
2024-04-25T13:30:22.613Z,2.03
2024-04-25T13:32:52.210Z,1.88
2024-04-25T13:35:19.805Z,1.95
2024-04-25T13:37:46.765Z,2.95
2024-04-25T13:40:13.731Z,2.38
2024-04-25T13:42:40.902Z,2.17
2024-04-25T13:45:08.175Z,2.35
2024-04-25T13:47:35.214Z,3.75
2024-04-25T13:50:02.249Z,2.00
2024-04-25T13:52:29.106Z,2.50
2024-04-25T13:54:55.991Z,2.15
2024-04-25T13:57:22.898Z,2.30
2024-04-25T13:59:50.119Z,2.08
2024-04-25T14:02:17.129Z,2.08
2024-04-25T14:04:44.351Z,2.05
2024-04-25T14:07:11.233Z,2.13
2024-04-25T14:09:44.537Z,2.38
2024-04-25T14:12:11.480Z,2.42
2024-04-25T14:14:38.374Z,2.63
2024-04-25T14:17:05.254Z,2.63
2024-04-25T14:19:32.203Z,2.80
2024-04-25T14:21:59.103Z,2.60
2024-04-25T14:24:28.123Z,3.00
2024-04-25T14:27:13.743Z,2.85
2024-04-25T14:29:43.498Z,2.75
2024-04-25T14:32:10.702Z,2.40
2024-04-25T14:34:37.672Z,1.80
2024-04-25T14:37:04.546Z,2.00
2024-04-25T14:39:32.127Z,2.33
2024-04-25T14:41:58.954Z,2.42
2024-04-25T14:44:25.823Z,2.95
2024-04-25T14:46:52.698Z,2.22
2024-04-25T14:49:20.172Z,2.75
2024-04-25T14:51:47.048Z,3.08
2024-04-25T14:54:13.997Z,3.08
2024-04-25T14:56:40.882Z,3.70
2024-04-25T14:59:08.635Z,3.10
2024-04-25T15:01:35.738Z,2.85
2024-04-25T15:04:05.722Z,3.65
2024-04-25T15:06:39.685Z,3.17
2024-04-25T15:09:06.755Z,3.72
2024-04-25T15:11:33.632Z,3.20
2024-04-25T15:14:00.527Z,3.38
2024-04-25T15:16:27.808Z,3.40
2024-04-25T15:18:55.426Z,3.10
2024-04-25T15:21:22.320Z,3.05
2024-04-25T15:23:49.302Z,2.80
2024-04-25T15:26:16.847Z,3.38
2024-04-25T15:28:43.786Z,2.83
2024-04-25T15:31:10.607Z,2.47
2024-04-25T15:33:37.605Z,2.30
2024-04-25T15:36:04.717Z,2.78
2024-04-25T15:38:32.090Z,2.88
2024-04-25T15:40:59.054Z,2.80
2024-04-25T15:43:25.901Z,3.13
2024-04-25T15:48:19.662Z,2.25
2024-04-25T15:50:46.687Z,2.80
2024-04-25T15:53:13.495Z,3.00
2024-04-25T15:55:40.518Z,2.53
2024-04-25T15:58:07.353Z,3.33
2024-04-25T16:00:34.298Z,3.03
2024-04-25T16:03:04.058Z,3.25
2024-04-25T16:05:31.185Z,3.20
2024-04-25T16:08:00.870Z,2.65
2024-04-25T16:10:27.824Z,2.60
2024-04-25T16:12:54.671Z,3.40
2024-04-25T16:15:21.495Z,3.00
2024-04-25T16:17:48.438Z,3.53
2024-04-25T16:20:15.444Z,2.60
2024-04-25T16:22:43.460Z,3.67
2024-04-25T16:25:10.841Z,3.88
2024-04-25T16:27:37.788Z,3.45
2024-04-25T16:30:05.178Z,3.95
2024-04-25T16:32:32.449Z,4.07
2024-04-25T16:34:59.499Z,3.88
2024-04-25T16:37:27.431Z,3.85
2024-04-25T16:39:55.918Z,3.58
2024-04-25T16:42:22.720Z,4.40
2024-04-25T16:44:52.812Z,4.10
2024-04-25T16:47:20.020Z,3.95
2024-04-25T16:49:46.891Z,4.00
2024-04-25T16:52:13.914Z,4.15
2024-04-25T16:54:40.811Z,3.90
2024-04-25T16:57:08.327Z,4.63
2024-04-25T16:59:35.519Z,4.75
2024-04-25T17:02:04.230Z,4.25
2024-04-25T17:04:32.337Z,4.32
2024-04-25T17:06:59.528Z,4.30
2024-04-25T17:09:28.631Z,4.35
2024-04-25T17:11:56.406Z,4.53
2024-04-25T17:14:25.159Z,4.95
2024-04-25T17:16:52.436Z,5.05
2024-04-25T17:19:19.515Z,4.80
2024-04-25T17:21:48.122Z,5.15
2024-04-25T17:24:16.679Z,5.45
2024-04-25T17:26:43.886Z,4.43
2024-04-25T17:29:11.509Z,4.75
2024-04-25T17:31:41.980Z,4.45
2024-04-25T17:34:09.065Z,4.85
2024-04-25T17:36:36.215Z,4.45
2024-04-25T17:39:04.418Z,5.03
2024-04-25T17:41:31.881Z,5.90
2024-04-25T17:43:58.816Z,5.82
2024-04-25T17:46:25.707Z,4.68
2024-04-25T17:48:52.763Z,4.85
2024-04-25T17:51:23.592Z,4.40
2024-04-25T17:53:50.812Z,4.88
2024-04-25T17:56:18.098Z,4.63
2024-04-25T17:58:46.153Z,4.38
2024-04-25T18:01:13.097Z,4.55
2024-04-25T18:03:39.973Z,4.68
2024-04-25T18:06:10.154Z,5.03
2024-04-25T18:08:37.255Z,4.18
2024-04-25T18:11:04.893Z,4.68
2024-04-25T18:13:32.249Z,4.68
2024-04-25T18:15:59.108Z,5.10
2024-04-25T18:18:26.190Z,5.05
2024-04-25T18:20:53.179Z,4.55
2024-04-25T18:23:20.069Z,4.78
2024-04-25T18:25:47.586Z,4.90
2024-04-25T18:28:14.552Z,5.15
2024-04-25T18:30:41.377Z,5.65
2024-04-25T18:33:08.401Z,5.20
2024-04-25T18:35:35.389Z,6.40
2024-04-25T18:38:02.256Z,5.00
2024-04-25T18:40:29.170Z,4.90
2024-04-25T18:42:56.065Z,4.82
2024-04-25T18:45:23.201Z,5.00
2024-04-25T18:47:50.346Z,5.32
2024-04-25T18:50:18.168Z,5.00
2024-04-25T18:52:46.435Z,5.93
2024-04-25T18:55:13.313Z,6.22
2024-04-25T18:57:40.497Z,5.35
2024-04-25T19:00:08.158Z,5.68
2024-04-25T19:02:35.612Z,6.40
2024-04-25T19:05:02.544Z,5.85
2024-04-25T19:07:29.553Z,5.30
2024-04-25T19:09:56.890Z,5.05
2024-04-25T19:12:24.565Z,5.30
2024-04-25T19:14:52.093Z,5.78
2024-04-25T19:17:19.068Z,5.70
2024-04-25T19:19:49.468Z,6.60
2024-04-25T19:22:17.230Z,5.75
2024-04-25T19:24:48.332Z,5.72
2024-04-25T19:27:15.740Z,6.43
2024-04-25T19:29:42.773Z,6.80
2024-04-25T19:32:09.714Z,6.97
2024-04-25T19:34:36.579Z,7.03
2024-04-25T19:37:03.430Z,6.35
2024-04-25T19:39:30.240Z,5.88
2024-04-25T19:41:58.355Z,7.13
2024-04-25T19:44:25.221Z,7.00
2024-04-25T19:46:53.576Z,7.53
2024-04-25T19:49:20.878Z,6.55
2024-04-25T19:51:48.787Z,6.65
2024-04-25T19:54:21.947Z,7.38
2024-04-25T19:56:49.636Z,6.80
2024-04-25T19:59:17.572Z,7.00
2024-04-25T20:01:49.943Z,6.88
2024-04-25T20:04:21.992Z,7.85
2024-04-25T20:06:50.566Z,6.68
2024-04-25T20:09:21.156Z,6.78
2024-04-25T20:11:48.549Z,6.43
2024-04-25T20:14:15.568Z,7.30
2024-04-25T20:16:42.491Z,6.50
2024-04-25T20:19:28.175Z,7.18
2024-04-25T20:21:55.262Z,7.28
2024-04-25T20:24:25.139Z,7.35
2024-04-25T20:26:52.915Z,6.68
2024-04-25T20:29:20.719Z,6.38
2024-04-25T20:31:47.656Z,6.53
2024-04-25T20:34:14.585Z,6.93
2024-04-25T20:36:44.116Z,6.72
2024-04-25T20:39:10.897Z,6.70
2024-04-25T20:41:40.996Z,6.65
2024-04-25T20:44:08.839Z,6.75
2024-04-25T20:46:35.665Z,7.28
2024-04-25T20:49:02.755Z,7.10
2024-04-25T20:51:31.479Z,6.88
2024-04-25T20:53:58.950Z,6.82
2024-04-25T20:56:27.161Z,6.65
2024-04-25T20:58:54.063Z,6.93
2024-04-25T21:01:20.985Z,6.75
2024-04-25T21:03:47.885Z,7.18
2024-04-25T21:06:14.876Z,7.15
2024-04-25T21:08:42.281Z,7.97
2024-04-25T21:11:09.350Z,7.75
2024-04-25T21:13:36.264Z,7.82
2024-04-25T21:16:03.235Z,7.70
2024-04-25T21:18:30.125Z,7.97
2024-04-25T21:21:01.062Z,7.32
2024-04-25T21:23:29.830Z,6.68
2024-04-25T21:26:01.175Z,6.57
2024-04-25T21:28:29.138Z,7.32
2024-04-25T21:30:56.078Z,7.07
2024-04-25T21:33:23.991Z,7.97
2024-04-25T21:35:51.178Z,7.03
2024-04-25T21:38:18.451Z,6.82
2024-04-25T21:40:46.070Z,6.75
2024-04-25T21:43:13.093Z,6.72
2024-04-25T21:45:39.911Z,7.78
2024-04-25T21:48:07.133Z,7.32
2024-04-25T21:50:34.314Z,7.35
2024-04-25T21:53:01.170Z,7.13
2024-04-25T21:55:27.970Z,7.75
2024-04-25T21:57:54.835Z,7.40
2024-04-25T22:00:22.038Z,7.18
2024-04-25T22:02:48.937Z,7.57
2024-04-25T22:05:15.745Z,6.93
2024-04-25T22:07:42.602Z,7.57
2024-04-25T22:10:09.389Z,7.03
2024-04-25T22:12:36.358Z,7.03
2024-04-25T22:15:03.605Z,7.70
2024-04-25T22:17:31.167Z,7.30
2024-04-25T22:19:59.180Z,7.80
2024-04-25T22:22:26.185Z,7.60
2024-04-25T22:24:53.444Z,7.65
2024-04-25T22:27:20.306Z,8.15
2024-04-25T22:29:47.177Z,7.47
2024-04-25T22:32:14.091Z,7.93
2024-04-25T22:34:40.970Z,7.80
2024-04-25T22:37:07.835Z,7.68
2024-04-25T22:39:34.749Z,7.85
2024-04-25T22:42:01.638Z,7.88
2024-04-25T22:44:28.661Z,8.25
2024-04-25T22:46:55.596Z,7.90
2024-04-25T22:49:22.627Z,7.88
2024-04-25T22:51:49.522Z,8.60
2024-04-25T22:54:16.442Z,8.48
2024-04-25T22:56:43.359Z,8.35
2024-04-25T22:59:10.250Z,8.85
2024-04-25T23:01:38.073Z,7.75
2024-04-25T23:04:05.000Z,8.80
2024-04-25T23:06:31.895Z,8.50
2024-04-25T23:09:01.236Z,8.65
2024-04-25T23:11:28.219Z,8.38
2024-04-25T23:13:55.147Z,9.15
2024-04-25T23:16:22.158Z,8.07
2024-04-25T23:18:49.201Z,8.00
2024-04-25T23:21:16.083Z,8.95
2024-04-25T23:23:43.065Z,9.02
2024-04-25T23:26:09.903Z,8.95
2024-04-25T23:28:36.735Z,8.88
2024-04-25T23:31:03.659Z,9.38
2024-04-25T23:33:30.696Z,9.77
2024-04-25T23:35:57.618Z,8.75
2024-04-25T23:38:24.470Z,9.05
2024-04-25T23:40:51.341Z,9.07
2024-04-25T23:43:18.210Z,9.23
2024-04-25T23:45:45.041Z,9.75
2024-04-25T23:48:11.967Z,10.05
2024-04-25T23:50:38.930Z,9.70
2024-04-25T23:53:05.909Z,9.38
2024-04-25T23:55:32.752Z,10.38
2024-04-25T23:57:59.635Z,9.45
